Time;durP1;ratioP1;P1;durP2;ratioP2;P2;SDS_P1;SDS_P2;PMS_P1;PMS_P2;Temp;Humidity;BMP_temperature;BMP_pressure;BME280_temperature;BME280_humidity;BME280_pressure;Samples;Min_cycle;Max_cycle;Signal;HPM_P1;HPM_P2
2023/10/27 00:01:36;;;;;;;28.80;16.70;;;;;;;9.99;100.00;98279.01;126063;1305;639074;-63
2023/10/27 00:05:39;;;;;;;24.70;16.00;;;;;;;9.97;99.97;98272.70;128316;1273;128726;-63
2023/10/27 00:09:42;;;;;;;;;;;;;;;;;;;;;
2023/10/27 00:13:37;;;;;;;29.30;17.30;;;;;;;9.93;99.99;98265.90;123260;1301;5472221;-61
2023/10/27 00:17:26;;;;;;;25.10;15.60;;;;;;;9.94;100.00;98261.02;126777;1289;114867;-65
2023/10/27 00:25:52;;;;;;;;;;;;;;;;;;;;;
2023/10/27 00:29:57;;;;;;;23.10;14.90;;;;;;;9.90;99.98;98256.16;128055;1281;128981;-62
2023/10/27 00:34:00;;;;;;;22.30;15.30;;;;;;;9.87;99.86;98254.73;127392;1300;115310;-69
2023/10/27 00:41:57;;;;;;;;;;;;;;;;;;;;;
2023/10/27 00:50:21;;;;;;;29.80;16.10;;;;;;;9.77;99.95;98243.30;125332;1302;639185;-64
2023/10/27 00:54:15;;;;;;;;;;;;;;;;;;;;;
2023/10/27 00:58:20;;;;;;;22.90;15.40;;;;;;;9.61;99.74;98236.72;127615;1283;115097;-63
2023/10/27 01:02:23;;;;;;;26.00;15.40;;;;;;;9.52;99.80;98237.41;122651;1291;5372433;-65
2023/10/27 01:06:24;;;;;;;27.10;15.60;;;;;;;9.41;99.32;98233.96;124948;1326;114914;-71
2023/10/27 01:14:39;;;;;;;24.10;15.70;;;;;;;9.19;98.80;98215.04;126199;1297;636848;-61
2023/10/27 01:18:43;;;;;;;21.70;14.50;;;;;;;9.02;98.61;98209.31;128610;1275;127828;-62
2023/10/27 01:22:45;;;;;;;20.50;15.00;;;;;;;8.89;98.60;98200.00;128499;1287;115229;-73
2023/10/27 01:26:49;;;;;;;26.60;16.00;;;;;;;8.74;98.23;98198.66;124427;1282;5457373;-64
2023/10/27 01:30:49;;;;;;;25.30;15.70;;;;;;;8.59;98.34;98197.10;126460;1296;114890;-64
2023/10/27 01:34:50;;;;;;;26.70;15.50;;;;;;;8.45;98.15;98189.38;125736;1299;114979;-62
2023/10/27 01:38:52;;;;;;;22.90;15.00;;;;;;;8.33;98.08;98188.69;125356;1324;114935;-66
2023/10/27 01:47:26;;;;;;;24.00;15.50;;;;;;;8.14;98.15;98179.64;125469;1299;638742;-63
2023/10/27 01:54:58;;;;;;;;;;;;;;;;;;;;;
2023/10/27 01:59:02;;;;;;;27.00;15.80;;;;;;;7.85;98.05;98170.71;128288;1280;115158;-70
2023/10/27 02:02:55;;;;;;;25.20;15.20;;;;;;;7.74;97.83;98164.35;123600;1305;114930;-73
2023/10/27 02:06:57;;;;;;;23.50;16.10;;;;;;;7.64;97.99;98161.32;127091;1305;115042;-71
2023/10/27 02:15:14;;;;;;;24.70;15.30;;;;;;;7.44;97.87;98161.72;126367;1295;635534;-70
2023/10/27 02:19:17;;;;;;;25.90;15.00;;;;;;;7.32;97.76;98158.85;128678;1294;130877;-69
2023/10/27 02:27:22;;;;;;;25.50;16.20;;;;;;;7.10;97.77;98163.02;123084;1301;5421313;-72
2023/10/27 02:31:04;;;;;;;30.80;16.30;;;;;;;7.00;97.73;98158.40;125706;1320;114994;-69
2023/10/27 02:35:05;;;;;;;30.00;16.20;;;;;;;6.93;97.91;98156.42;125693;1319;114772;-72
2023/10/27 02:38:59;;;;;;;26.80;15.70;;;;;;;6.86;98.14;98154.75;125777;1320;114874;-69
2023/10/27 02:42:42;;;;;;;27.10;17.10;;;;;;;6.79;98.09;98157.14;125726;1302;129666;-66
2023/10/27 02:54:47;;;;;;;25.50;16.50;;;;;;;6.63;98.26;98156.80;124877;1326;114986;-70
2023/10/27 02:58:47;;;;;;;26.80;15.70;;;;;;;6.58;98.41;98158.02;124685;1328;114852;-69
2023/10/27 03:02:49;;;;;;;26.10;16.80;;;;;;;6.55;98.40;98164.66;125344;1302;130100;-70
2023/10/27 03:06:37;;;;;;;29.40;17.00;;;;;;;6.50;98.50;98169.26;125442;1307;115460;-63
2023/10/27 03:18:44;;;;;;;32.80;17.50;;;;;;;6.39;98.81;98168.38;124931;1325;114997;-63
2023/10/27 03:27:10;;;;;;;22.70;16.10;;;;;;;6.36;98.74;98173.36;126088;1295;637476;-67
2023/10/27 03:35:06;;;;;;;;;;;;;;;;;;;;;
2023/10/27 03:39:10;;;;;;;32.10;16.10;;;;;;;6.30;99.06;98173.01;123326;1286;5412097;-72
2023/10/27 03:43:13;;;;;;;31.10;17.50;;;;;;;6.29;99.23;98164.23;125572;1304;114980;-75
2023/10/27 03:51:28;;;;;;;24.80;15.70;;;;;;;6.28;99.15;98162.35;125535;1300;636904;-65
2023/10/27 03:59:17;;;;;;;27.00;16.30;;;;;;;6.25;99.33;98157.77;127086;1307;114757;-63
2023/10/27 04:03:14;;;;;;;23.40;16.30;;;;;;;6.25;99.37;98161.32;122572;1298;5418281;-69
2023/10/27 04:07:15;;;;;;;24.60;16.80;;;;;;;6.25;99.26;98163.46;125315;1305;115095;-75
2023/10/27 04:11:09;;;;;;;38.60;17.20;;;;;;;6.22;99.38;98164.16;124358;1331;114883;-72
2023/10/27 04:23:35;;;;;;;29.70;17.40;;;;;;;6.22;99.57;98149.64;128475;1273;128897;-76
2023/10/27 04:27:35;;;;;;;;;;;;;;;;;;;;;
2023/10/27 04:31:40;;;;;;;37.90;22.40;;;;;;;6.21;99.56;98150.03;122304;1296;5716902;-71
2023/10/27 04:40:07;;;;;;;40.70;26.70;;;;;;;6.24;99.88;98153.59;125768;1300;636754;-75
2023/10/27 04:48:12;;;;;;;36.40;25.20;;;;;;;6.26;100.00;98156.31;127410;1306;115278;-74
2023/10/27 04:56:20;;;;;;;34.80;22.80;;;;;;;6.28;100.00;98150.66;125574;1307;114924;-74
2023/10/27 05:00:22;;;;;;;23.50;16.00;;;;;;;6.30;100.00;98157.23;125605;1304;116392;-73
2023/10/27 05:08:57;;;;;;;37.90;24.00;;;;;;;6.35;100.00;98137.59;125481;1299;638959;-74
2023/10/27 05:12:58;;;;;;;;;;;;;;;;;;;;;
2023/10/27 05:16:49;;;;;;;;;;;;;;;;;;;;;
2023/10/27 05:25:17;;;;;;;41.50;25.80;;;;;;;6.47;100.00;98112.17;126088;1297;635993;-71
2023/10/27 05:29:17;;;;;;;38.60;24.00;;;;;;;6.45;100.00;98121.33;127837;1283;127939;-71
2023/10/27 05:33:20;;;;;;;42.80;24.90;;;;;;;6.47;100.00;98126.88;127597;1284;115356;-68
2023/10/27 05:37:29;;;;;;;36.10;23.80;;;;;;;6.50;100.00;98124.89;122596;1291;5407286;-73
2023/10/27 05:41:30;;;;;;;40.30;23.80;;;;;;;6.52;100.00;98126.75;125163;1308;114960;-72
2023/10/27 05:49:57;;;;;;;43.60;24.70;;;;;;;6.61;100.00;98131.08;126270;1294;635471;-62
2023/10/27 05:53:58;;;;;;;42.40;26.40;;;;;;;6.63;100.00;98136.09;128587;1277;128836;-66
2023/10/27 05:58:01;;;;;;;47.40;25.50;;;;;;;6.66;100.00;98143.50;127439;1286;115801;-66
2023/10/27 06:01:55;;;;;;;;;;;;;;;;;;;;;
2023/10/27 06:05:52;;;;;;;;;;;;;;;;;;;;;
2023/10/27 06:09:35;;;;;;;38.00;23.00;;;;;;;6.83;100.00;98127.41;126059;1293;114865;-63
2023/10/27 06:13:53;;;;;;;34.60;21.00;;;;;;;6.87;100.00;98124.89;126099;1293;114899;-62
2023/10/27 06:17:54;;;;;;;33.10;20.30;;;;;;;6.89;100.00;98114.64;125677;1302;129904;-61
2023/10/27 06:21:54;;;;;;;;;;;;;;;;;;;;;
2023/10/27 06:30:31;;;;;;;32.20;20.60;;;;;;;6.99;100.00;98119.42;125389;1312;638457;-62
2023/10/27 06:34:33;;;;;;;33.80;20.20;;;;;;;7.01;100.00;98122.49;127968;1281;128941;-63
2023/10/27 06:38:38;;;;;;;32.40;19.60;;;;;;;7.05;100.00;98126.26;127087;1306;115224;-61
2023/10/27 06:42:42;;;;;;;33.20;19.80;;;;;;;7.13;100.00;98124.50;122460;1289;5654149;-64
2023/10/27 06:50:18;;;;;;;40.90;23.80;;;;;;;7.31;100.00;98122.34;124649;1329;115161;-63
2023/10/27 06:54:20;;;;;;;38.60;21.80;;;;;;;7.37;100.00;98119.21;124342;1315;114898;-64
2023/10/27 07:02:50;;;;;;;33.60;21.30;;;;;;;7.51;100.00;98121.63;125654;1295;638518;-65
2023/10/27 07:06:53;;;;;;;33.60;19.30;;;;;;;7.57;100.00;98125.07;128253;1280;128290;-67
2023/10/27 07:14:59;;;;;;;30.60;19.90;;;;;;;7.79;100.00;98129.90;122309;1306;5460635;-68
2023/10/27 07:18:49;;;;;;;;;;;;;;;;;;;;;
2023/10/27 07:26:52;;;;;;;31.10;20.80;;;;;;;8.22;100.00;98125.34;124019;1310;129852;-64
2023/10/27 07:30:43;;;;;;;37.50;23.20;;;;;;;8.36;100.00;98128.04;123375;1320;115751;-63
2023/10/27 07:38:57;;;;;;;37.50;20.40;;;;;;;8.66;100.00;98126.11;125580;1305;639333;-65
2023/10/27 07:42:53;;;;;;;37.30;22.10;;;;;;;8.77;100.00;98114.80;127458;1285;127672;-63
2023/10/27 07:46:55;;;;;;;34.40;21.30;;;;;;;8.86;100.00;98111.09;126823;1301;114773;-62
2023/10/27 07:51:21;;;;;;;33.10;20.00;;;;;;;8.90;100.00;98107.01;121496;1313;5434952;-65
2023/10/27 07:54:40;;;;;;;30.10;18.30;;;;;;;8.96;100.00;98101.06;123827;1316;115098;-65
2023/10/27 08:02:48;;;;;;;30.60;20.70;;;;;;;9.23;100.00;98089.33;125771;1299;635986;-64
2023/10/27 08:06:52;;;;;;;33.80;23.10;;;;;;;9.41;100.00;98095.55;128024;1283;128231;-67
2023/10/27 08:10:53;;;;;;;47.70;32.10;;;;;;;9.60;100.00;98083.54;127615;1286;115216;-63
2023/10/27 08:14:35;;;;;;;46.40;31.60;;;;;;;9.75;100.00;98081.42;123259;1286;5444830;-63
2023/10/27 08:18:18;;;;;;;43.10;31.60;;;;;;;9.89;100.00;98083.42;126770;1293;114976;-63
2023/10/27 08:22:14;;;;;;;;;;;;;;;;;;;;;
2023/10/27 08:26:16;;;;;;;27.20;20.70;;;;;;;10.21;100.00;98070.64;126191;1299;114910;-69
2023/10/27 08:29:58;;;;;;;26.10;17.70;;;;;;;10.37;100.00;98073.80;125663;1305;128770;-64
2023/10/27 08:33:52;;;;;;;27.80;18.00;;;;;;;10.50;100.00;98072.55;125265;1299;115591;-70
2023/10/27 08:37:43;;;;;;;;;;;;;;;;;;;;;
2023/10/27 08:41:46;;;;;;;24.10;13.90;;;;;;;10.78;99.97;98082.30;124905;1326;114939;-66
2023/10/27 08:49:48;;;;;;;23.10;15.40;;;;;;;10.91;98.77;98082.98;125279;1298;128525;-70
2023/10/27 08:53:31;;;;;;;20.70;14.50;;;;;;;10.96;98.79;98079.73;125414;1298;115449;-66
2023/10/27 08:56:35;;;;;;;29.90;16.90;;;;;;;11.02;98.69;98079.36;126178;1298;114935;-72
2023/10/27 09:00:52;;;;;;;26.10;17.00;;;;;;;11.03;98.70;98078.38;126170;1297;114919;-69
2023/10/27 09:05:08;;;;;;;20.10;14.20;;;;;;;11.11;98.60;98075.14;127006;1292;114848;-66
2023/10/27 09:09:14;;;;;;;23.70;13.90;;;;;;;11.13;97.98;98074.30;127330;1289;129101;-68
2023/10/27 09:13:18;;;;;;;21.10;13.80;;;;;;;11.18;98.04;98064.58;126796;1292;115323;-65
2023/10/27 09:17:22;;;;;;;18.70;12.70;;;;;;;11.19;97.68;98065.15;125753;1303;114997;-68
2023/10/27 09:25:54;;;;;;;21.50;14.80;;;;;;;11.31;97.81;98075.80;126483;1289;635870;-70
2023/10/27 09:34:04;;;;;;;19.00;13.60;;;;;;;11.46;97.52;98072.11;127014;1307;115134;-74
2023/10/27 09:38:12;;;;;;;20.60;13.60;;;;;;;11.51;97.23;98072.49;122513;1313;5451976;-70
2023/10/27 09:42:12;;;;;;;19.90;13.90;;;;;;;11.53;97.00;98074.98;125560;1302;114968;-77
2023/10/27 09:49:44;;;;;;;20.10;13.30;;;;;;;11.55;96.39;98061.44;126321;1303;636147;-71
2023/10/27 09:53:41;;;;;;;18.60;12.60;;;;;;;11.52;96.18;98060.98;129491;1279;128830;-75
2023/10/27 09:57:32;;;;;;;21.80;13.40;;;;;;;11.58;96.60;98050.62;129354;1271;114833;-74
2023/10/27 10:01:34;;;;;;;16.20;12.50;;;;;;;11.64;96.33;98042.48;129182;1270;114850;-68
2023/10/27 10:04:51;;;;;;;16.60;12.90;;;;;;;11.65;96.64;98037.84;124271;1300;114967;-69
2023/10/27 10:08:34;;;;;;;19.40;13.50;;;;;;;11.72;96.60;98039.77;127948;1281;114914;-66
2023/10/27 10:12:41;;;;;;;17.20;12.20;;;;;;;11.78;96.47;98034.05;127881;1291;114909;-65
2023/10/27 10:16:44;;;;;;;16.70;12.30;;;;;;;11.85;96.52;98033.39;128112;1280;128909;-75
2023/10/27 10:20:49;;;;;;;20.00;12.80;;;;;;;11.97;96.87;98032.98;127520;1303;115648;-68
2023/10/27 10:24:36;;;;;;;14.80;11.60;;;;;;;12.04;96.01;98033.67;126641;1295;114937;-73
2023/10/27 10:29:02;;;;;;;14.20;10.30;;;;;;;12.05;95.52;98029.27;126479;1311;114872;-77
2023/10/27 10:33:03;;;;;;;16.60;10.40;;;;;;;12.07;95.29;98025.32;125755;1318;114897;-70
2023/10/27 10:37:13;;;;;;;15.10;10.80;;;;;;;12.08;95.27;98018.26;125603;1300;128919;-73
2023/10/27 10:41:39;;;;;;;15.30;11.90;;;;;;;12.16;95.59;98018.25;125382;1302;114958;-70
2023/10/27 10:45:38;;;;;;;18.00;11.70;;;;;;;12.22;95.13;98010.21;126171;1313;115058;-64
2023/10/27 10:49:42;;;;;;;17.50;11.60;;;;;;;12.27;94.82;98007.20;125640;1319;114979;-70
2023/10/27 10:53:52;;;;;;;17.40;12.10;;;;;;;12.31;94.65;98004.89;125506;1319;114847;-70
2023/10/27 10:58:03;;;;;;;12.10;9.50;;;;;;;12.37;94.19;98000.02;125954;1302;129259;-66
2023/10/27 11:02:05;;;;;;;16.50;11.10;;;;;;;12.38;93.97;97999.02;125804;1302;114871;-71
2023/10/27 11:06:06;;;;;;;12.60;9.70;;;;;;;12.41;93.67;97994.80;124664;1312;114816;-66
2023/10/27 11:10:07;;;;;;;11.50;9.70;;;;;;;12.42;93.83;97995.21;123940;1327;114973;-69
2023/10/27 11:13:44;;;;;;;;;;;;;;;;;;;;;
2023/10/27 11:17:35;;;;;;;14.30;9.60;;;;;;;12.55;94.45;97989.14;124154;1317;129944;-64
2023/10/27 11:21:36;;;;;;;14.20;10.50;;;;;;;12.63;93.97;97989.14;124213;1317;115432;-67
2023/10/27 11:25:38;;;;;;;15.80;11.00;;;;;;;12.61;93.68;97992.94;124111;1330;114904;-64
2023/10/27 11:29:37;;;;;;;;;;;;;;;;;;;;;
2023/10/27 11:42:16;;;;;;;14.10;10.50;;;;;;;12.66;93.16;97997.86;128484;1275;127959;-63
2023/10/27 11:50:22;;;;;;;21.00;11.20;;;;;;;12.65;92.89;97997.16;123708;1303;5472328;-67
2023/10/27 11:54:20;;;;;;;15.00;12.30;;;;;;;12.66;92.90;97998.34;126666;1309;114942;-63
2023/10/27 11:58:12;;;;;;;21.50;14.10;;;;;;;12.67;93.20;97999.70;125665;1302;114891;-68
2023/10/27 12:02:13;;;;;;;22.80;17.90;;;;;;;12.63;93.19;98004.94;125264;1304;129916;-63
2023/10/27 12:14:34;;;;;;;;;;;;;;;;;;;;;
2023/10/27 12:19:02;;;;;;;26.90;20.00;;;;;;;12.43;93.40;97996.02;127049;1287;114897;-68
2023/10/27 12:22:44;;;;;;;68.60;45.30;;;;;;;12.40;93.91;97996.11;123088;1289;5422161;-65
2023/10/27 12:26:46;;;;;;;22.40;15.70;;;;;;;12.33;93.39;97988.75;125425;1304;114904;-63
2023/10/27 12:30:37;;;;;;;35.70;31.80;;;;;;;12.23;93.32;97992.33;125719;1320;114925;-65
2023/10/27 12:34:38;;;;;;;18.50;14.50;;;;;;;12.15;93.40;97995.76;124795;1305;114914;-63
2023/10/27 12:38:31;;;;;;;;;;;;;;;;;;;;;
2023/10/27 12:42:26;;;;;;;23.70;17.80;;;;;;;11.99;93.74;97998.30;124489;1313;115299;-65
2023/10/27 12:46:22;;;;;;;19.80;15.80;;;;;;;11.94;93.94;97998.39;123842;1331;114931;-64
2023/10/27 12:50:23;;;;;;;23.00;16.20;;;;;;;11.93;94.34;97998.64;123544;1331;115004;-70
2023/10/27 12:54:17;;;;;;;17.10;13.90;;;;;;;11.94;95.04;97998.25;123942;1325;115363;-68
2023/10/27 13:01:57;;;;;;;20.50;15.10;;;;;;;11.87;94.43;98002.78;125117;1318;114903;-66
2023/10/27 13:05:59;;;;;;;22.50;16.10;;;;;;;11.85;94.64;98000.66;125932;1301;114939;-66
2023/10/27 13:17:47;;;;;;;20.80;14.90;;;;;;;11.75;94.73;98002.65;124793;1325;128389;-64
2023/10/27 13:21:57;;;;;;;20.70;15.50;;;;;;;11.72;94.64;98002.58;124981;1310;115301;-62
2023/10/27 13:25:42;;;;;;;204.80;88.40;;;;;;;11.69;94.89;98006.36;124856;1299;115054;-66
2023/10/27 13:29:43;;;;;;;87.20;43.50;;;;;;;11.64;94.83;98002.38;125394;1322;114988;-67
2023/10/27 13:33:35;;;;;;;26.00;17.30;;;;;;;11.61;95.10;98004.46;125663;1320;114889;-63
2023/10/27 13:37:36;;;;;;;25.40;16.10;;;;;;;11.56;94.98;98003.82;125286;1300;129735;-62
2023/10/27 13:41:36;;;;;;;32.10;20.30;;;;;;;11.52;95.30;98005.98;125472;1299;115506;-68
2023/10/27 13:45:37;;;;;;;36.90;22.60;;;;;;;11.49;95.39;98007.29;125664;1304;114986;-65
2023/10/27 13:49:38;;;;;;;;;;;;;;;;;;;;;
2023/10/27 14:01:45;;;;;;;22.90;16.10;;;;;;;11.33;95.79;98017.69;126043;1308;635923;-65
2023/10/27 14:09:39;;;;;;;20.50;15.70;;;;;;;11.20;96.15;98024.88;129277;1277;115248;-65
2023/10/27 14:13:45;;;;;;;22.20;16.10;;;;;;;11.15;96.31;98028.20;128670;1292;114859;-66
2023/10/27 14:17:47;;;;;;;21.70;17.10;;;;;;;11.08;96.37;98031.48;124230;1277;114917;-67
2023/10/27 14:21:32;;;;;;;37.40;26.20;;;;;;;11.04;96.64;98036.81;126997;1305;114929;-67
2023/10/27 14:25:27;;;;;;;;;;;;;;;;;;;;;
2023/10/27 14:29:38;;;;;;;;;;;;;;;;;;;;;
2023/10/27 14:33:38;;;;;;;;;;;;;;;;;;;;;
2023/10/27 14:37:38;;;;;;;;;;;;;;;;;;;;;
2023/10/27 14:42:05;;;;;;;30.30;20.80;;;;;;;10.86;97.55;98050.35;126658;1291;635441;-66
2023/10/27 14:46:11;;;;;;;27.00;19.10;;;;;;;10.83;97.49;98056.49;129337;1268;127863;-68
2023/10/27 14:50:10;;;;;;;242.20;180.10;;;;;;;10.76;97.52;98063.53;127953;1299;115025;-69
2023/10/27 14:58:04;;;;;;;41.70;30.40;;;;;;;10.67;97.42;98067.41;125103;1323;114884;-69
2023/10/27 15:01:57;;;;;;;46.20;29.60;;;;;;;10.66;97.87;98072.28;124376;1312;114987;-70
2023/10/27 15:05:51;;;;;;;21.50;17.50;;;;;;;10.65;97.92;98076.98;124552;1313;114988;-69
2023/10/27 15:14:17;;;;;;;;;;;;;;;;;;;;;
2023/10/27 15:26:48;;;;;;;32.70;22.30;;;;;;;10.62;98.73;98083.16;126322;1303;635346;-67
2023/10/27 15:30:51;;;;;;;24.50;17.40;;;;;;;10.57;98.72;98089.59;127881;1284;128991;-63
2023/10/27 15:34:54;;;;;;;27.00;17.00;;;;;;;10.54;98.90;98096.80;126783;1292;115328;-65
2023/10/27 15:39:03;;;;;;;28.30;20.50;;;;;;;10.52;99.22;98093.06;121877;1298;5439587;-64
2023/10/27 15:43:03;;;;;;;33.40;24.40;;;;;;;10.49;99.20;98095.30;124330;1328;114938;-64
2023/10/27 15:51:41;;;;;;;30.20;22.40;;;;;;;10.50;99.63;98096.25;125542;1302;638748;-62
2023/10/27 15:55:47;;;;;;;26.90;20.10;;;;;;;10.48;99.74;98097.61;127496;1278;128336;-62
2023/10/27 15:59:42;;;;;;;30.90;23.50;;;;;;;10.47;99.70;98100.98;127853;1280;115079;-64
2023/10/27 16:03:45;;;;;;;28.70;20.10;;;;;;;10.45;99.88;98098.07;124280;1290;3627860;-62
2023/10/27 16:07:32;;;;;;;;;;;;;;;;;;;;;
2023/10/27 16:11:36;;;;;;;32.10;21.70;;;;;;;10.44;99.99;98096.20;125939;1313;114942;-62
2023/10/27 16:15:35;;;;;;;26.10;20.60;;;;;;;10.43;100.00;98098.98;124781;1308;129946;-61
2023/10/27 16:19:38;;;;;;;24.90;20.30;;;;;;;10.41;99.91;98091.83;124274;1331;115429;-61
2023/10/27 16:23:19;;;;;;;29.00;20.70;;;;;;;10.40;100.00;98096.57;124215;1310;114995;-62
2023/10/27 16:27:21;;;;;;;;;;;;;;;;;;;;;
2023/10/27 16:30:47;;;;;;;33.20;24.10;;;;;;;10.31;99.97;98097.48;123222;1325;114964;-64
2023/10/27 16:35:00;;;;;;;28.90;22.40;;;;;;;10.33;100.00;98095.85;125505;1301;638652;-64
2023/10/27 16:38:30;;;;;;;;;;;;;;;;;;;;;
2023/10/27 16:42:21;;;;;;;35.80;29.20;;;;;;;10.32;100.00;98104.37;129222;1267;115323;-63
2023/10/27 16:46:25;;;;;;;34.40;27.10;;;;;;;10.30;100.00;98108.58;129082;1286;114779;-63
2023/10/27 16:50:28;;;;;;;44.90;33.60;;;;;;;10.29;100.00;98108.85;124941;1268;114999;-65
2023/10/27 16:53:42;;;;;;;;;;;;;;;;;;;;;
2023/10/27 16:57:47;;;;;;;70.90;48.70;;;;;;;10.26;100.00;98112.17;127621;1285;116508;-63
2023/10/27 17:01:46;;;;;;;;;;;;;;;;;;;;;
2023/10/27 17:05:24;;;;;;;73.20;51.20;;;;;;;10.22;100.00;98115.05;125869;1297;115516;-65
2023/10/27 17:09:25;;;;;;;75.40;49.20;;;;;;;10.20;100.00;98122.83;125721;1315;115041;-63
2023/10/27 17:13:26;;;;;;;68.20;46.80;;;;;;;10.18;100.00;98124.59;124997;1322;114895;-62
2023/10/27 17:22:00;;;;;;;86.30;54.40;;;;;;;10.18;100.00;98130.88;125382;1305;639538;-64
2023/10/27 17:25:55;;;;;;;;;;;;;;;;;;;;;
2023/10/27 17:29:43;;;;;;;;;;;;;;;;;;;;;
2023/10/27 17:33:38;;;;;;;;;;;;;;;;;;;;;
2023/10/27 17:37:41;;;;;;;79.50;55.30;;;;;;;10.15;100.00;98138.23;124935;1317;114967;-65
2023/10/27 17:41:22;;;;;;;88.30;61.10;;;;;;;10.15;100.00;98139.81;124569;1330;114796;-65
2023/10/27 17:53:52;;;;;;;58.50;41.10;;;;;;;10.14;100.00;98145.60;127276;1286;128877;-65
2023/10/27 17:57:55;;;;;;;58.40;39.50;;;;;;;10.13;100.00;98144.46;126309;1303;115395;-64
2023/10/27 18:02:03;;;;;;;56.90;39.00;;;;;;;10.11;100.00;98140.38;123225;1291;5441290;-63
2023/10/27 18:06:03;;;;;;;53.20;37.90;;;;;;;10.09;100.00;98145.84;125295;1302;115398;-67
2023/10/27 18:14:29;;;;;;;43.30;30.90;;;;;;;10.12;100.00;98152.36;125472;1306;637398;-65
2023/10/27 18:18:32;;;;;;;63.10;39.10;;;;;;;10.10;100.00;98154.85;127177;1307;128418;-66
2023/10/27 18:22:33;;;;;;;60.40;38.00;;;;;;;10.10;100.00;98156.63;125597;1302;115298;-66
2023/10/27 18:26:34;;;;;;;41.00;28.70;;;;;;;10.09;100.00;98157.41;121375;1303;5440464;-65
2023/10/27 18:39:13;;;;;;;34.80;23.50;;;;;;;10.13;100.00;98170.34;128540;1277;127083;-62
2023/10/27 18:43:17;;;;;;;30.20;21.80;;;;;;;10.11;100.00;98170.30;127557;1280;115250;-65
2023/10/27 18:47:13;;;;;;;;;;;;;;;;;;;;;
2023/10/27 18:51:37;;;;;;;34.80;23.20;;;;;;;10.10;100.00;98182.13;125854;1302;114986;-62
2023/10/27 18:55:35;;;;;;;36.00;23.80;;;;;;;10.11;100.00;98186.34;124847;1320;114951;-62
2023/10/27 19:04:00;;;;;;;32.20;22.20;;;;;;;10.14;100.00;98193.63;126088;1297;635631;-63
2023/10/27 19:08:04;;;;;;;26.80;20.70;;;;;;;10.11;100.00;98201.50;128502;1278;129221;-63
2023/10/27 19:12:01;;;;;;;;;;;;;;;;;;;;;
2023/10/27 19:16:06;;;;;;;28.00;20.90;;;;;;;10.10;100.00;98206.21;122469;1292;5441480;-65
2023/10/27 19:20:09;;;;;;;29.00;20.30;;;;;;;10.11;100.00;98214.05;125732;1315;114938;-64
2023/10/27 19:24:31;;;;;;;28.80;19.60;;;;;;;10.09;100.00;98222.73;125457;1323;114875;-64
2023/10/27 19:40:04;;;;;;;;;;;;;;;;;;;;;
2023/10/27 19:48:11;;;;;;;20.60;15.10;;;;;;;10.11;100.00;98244.15;128037;1293;114782;-61
2023/10/27 19:56:08;;;;;;;35.00;22.00;;;;;;;10.14;100.00;98258.15;125625;1303;115007;-62
2023/10/27 20:00:10;;;;;;;35.00;22.20;;;;;;;10.15;100.00;98261.98;125484;1317;114887;-63
2023/10/27 20:04:10;;;;;;;40.30;26.90;;;;;;;10.16;100.00;98262.79;124388;1311;129776;-62
2023/10/27 20:12:24;;;;;;;58.90;35.10;;;;;;;10.21;100.00;98266.88;126345;1295;636635;-61
2023/10/27 20:16:13;;;;;;;61.00;32.50;;;;;;;10.19;100.00;98274.14;128551;1278;128821;-62
2023/10/27 20:20:17;;;;;;;57.30;32.70;;;;;;;10.19;100.00;98277.70;127993;1300;115428;-63
2023/10/27 20:24:25;;;;;;;64.80;33.90;;;;;;;10.20;100.00;98278.73;124896;1296;5514137;-63
2023/10/27 20:28:27;;;;;;;81.20;40.50;;;;;;;10.21;100.00;98281.17;126108;1296;114832;-66
2023/10/27 20:32:16;;;;;;;;;;;;;;;;;;;;;
2023/10/27 20:36:05;;;;;;;68.30;42.40;;;;;;;10.25;100.00;98291.75;124917;1310;129839;-64
2023/10/27 20:40:06;;;;;;;;;;;;;;;;;;;;;
2023/10/27 20:48:29;;;;;;;61.00;35.30;;;;;;;10.32;100.00;98293.14;125926;1305;638600;-61
2023/10/27 20:52:19;;;;;;;;;;;;;;;;;;;;;
2023/10/27 20:56:23;;;;;;;65.00;36.20;;;;;;;10.29;100.00;98297.63;129224;1274;115499;-62
2023/10/27 21:00:26;;;;;;;71.70;35.90;;;;;;;10.30;100.00;98303.08;124729;1274;5448266;-62
2023/10/27 21:04:23;;;;;;;66.80;32.60;;;;;;;10.30;100.00;98307.59;128032;1280;114855;-61
2023/10/27 21:08:17;;;;;;;49.80;31.60;;;;;;;10.30;100.00;98312.34;127544;1293;115304;-61
2023/10/27 21:12:18;;;;;;;45.30;29.60;;;;;;;10.31;100.00;98318.38;127455;1300;114933;-62
2023/10/27 21:20:22;;;;;;;47.60;31.00;;;;;;;10.30;100.00;98326.44;126026;1313;116660;-64
2023/10/27 21:24:23;;;;;;;43.90;28.20;;;;;;;10.31;100.00;98327.27;125596;1320;114978;-62
2023/10/27 21:28:15;;;;;;;46.50;28.90;;;;;;;10.31;100.00;98325.81;125333;1324;114853;-61
2023/10/27 21:32:16;;;;;;;38.40;27.00;;;;;;;10.31;100.00;98328.91;124963;1321;114978;-62
2023/10/27 21:36:18;;;;;;;37.90;28.10;;;;;;;10.31;100.00;98331.19;125247;1305;128757;-61
2023/10/27 21:40:10;;;;;;;;;;;;;;;;;;;;;
2023/10/27 21:48:15;;;;;;;38.10;26.30;;;;;;;10.35;100.00;98339.46;126011;1315;114984;-62
2023/10/27 21:52:07;;;;;;;;;;;;;;;;;;;;;
2023/10/27 21:56:10;;;;;;;29.00;19.60;;;;;;;10.35;100.00;98343.17;125313;1299;130494;-63
2023/10/27 22:00:13;;;;;;;;;;;;;;;;;;;;;
2023/10/27 22:04:13;;;;;;;22.70;17.80;;;;;;;10.37;100.00;98345.52;124828;1318;115207;-64
2023/10/27 22:16:33;;;;;;;;;;;;;;;;;;;;;
2023/10/27 22:20:38;;;;;;;15.60;12.00;;;;;;;10.41;100.00;98362.40;128440;1274;115745;-65
2023/10/27 22:24:40;;;;;;;22.50;13.00;;;;;;;10.39;100.00;98365.91;123781;1281;5584444;-62
2023/10/27 22:28:43;;;;;;;13.90;9.60;;;;;;;10.36;100.00;98367.02;126216;1294;114865;-64
2023/10/27 22:32:24;;;;;;;;;;;;;;;10.33;100.00;98376.16;125382;1322;115237;-64
2023/10/27 22:36:04;;;;;;;8.20;6.90;;;;;;;10.31;100.00;98376.67;125377;1322;128114;-68
2023/10/27 23:00:53;;;;;;;8.30;5.90;;;;;;;10.30;100.00;98411.77;124728;1329;114854;-62
2023/10/27 23:04:54;;;;;;;7.30;6.40;;;;;;;10.29;100.00;98409.85;123983;1332;114902;-61
2023/10/27 23:13:19;;;;;;;8.70;5.90;;;;;;;10.28;100.00;98410.86;125715;1301;635084;-61
2023/10/27 23:17:22;;;;;;;6.30;5.10;;;;;;;10.26;100.00;98406.02;127513;1303;129141;-60
2023/10/27 23:21:08;;;;;;;8.00;4.90;;;;;;;10.25;100.00;98408.07;126252;1313;115361;-61
2023/10/27 23:25:10;;;;;;;8.80;5.90;;;;;;;10.26;100.00;98410.98;122517;1296;5430881;-61
2023/10/27 23:29:13;;;;;;;10.60;5.40;;;;;;;10.26;100.00;98420.14;124738;1310;116464;-64
2023/10/27 23:49:45;;;;;;;8.10;5.70;;;;;;;10.14;100.00;98423.67;121543;1299;5426188;-67
2023/10/27 23:54:08;;;;;;;8.10;5.20;;;;;;;10.13;100.00;98427.70;124116;1332;114933;-61
2023/10/27 23:57:45;;;;;;;7.00;5.70;;;;;;;10.12;100.00;98430.81;124468;1319;114951;-61
